Time;durP1;ratioP1;P1;durP2;ratioP2;P2;SDS_P1;SDS_P2;PMS_P1;PMS_P2;Temp;Humidity;BMP_temperature;BMP_pressure;BME280_temperature;BME280_humidity;BME280_pressure;Samples;Min_cycle;Max_cycle;Signal;HPM_P1;HPM_P2
2023/05/15 00:02:16;;;;;;;4.97;4.38;;;;;;;11.54;86.32;98408.88;5026117;28;20033;-74
2023/05/15 00:04:43;;;;;;;4.93;4.18;;;;;;;11.54;86.65;98414.19;5026909;28;20152;-73
2023/05/15 00:07:10;;;;;;;5.30;4.13;;;;;;;11.05;86.37;98319.66;5026285;28;20046;-72
2023/05/15 00:09:37;;;;;;;4.97;4.47;;;;;;;11.52;86.44;98406.31;5027132;28;20105;-73
2023/05/15 00:12:07;;;;;;;5.88;4.20;;;;;;;11.51;86.61;98399.31;5027287;28;20041;-73
2023/05/15 00:14:34;;;;;;;4.75;4.18;;;;;;;11.52;86.40;98397.53;5027258;28;20049;-75
2023/05/15 00:17:00;;;;;;;5.15;4.60;;;;;;;11.52;86.71;98384.25;5026869;28;20226;-76
2023/05/15 00:19:27;;;;;;;4.93;4.30;;;;;;;11.51;86.42;98388.72;5025814;28;20045;-75
2023/05/15 00:21:54;;;;;;;5.30;4.50;;;;;;;11.51;86.60;98385.22;5025586;28;20060;-75
2023/05/15 00:24:21;;;;;;;5.38;4.88;;;;;;;11.50;86.64;98380.88;5026834;28;20042;-76
2023/05/15 00:26:48;;;;;;;4.50;3.90;;;;;;;11.49;86.42;98382.69;5026762;28;20113;-76
2023/05/15 00:29:16;;;;;;;5.50;3.83;;;;;;;11.50;86.47;98384.38;5027028;28;20251;-76
2023/05/15 00:31:43;;;;;;;5.68;4.65;;;;;;;11.50;86.67;98387.03;5026991;28;20112;-76
2023/05/15 00:34:10;;;;;;;5.03;4.03;;;;;;;11.49;86.71;98377.38;5026413;28;20046;-76
2023/05/15 00:36:36;;;;;;;4.63;3.80;;;;;;;11.48;86.46;98377.47;5026499;28;20052;-76
2023/05/15 00:39:03;;;;;;;4.15;3.38;;;;;;;11.47;86.48;98362.53;5025528;28;20038;-77
2023/05/15 00:41:31;;;;;;;5.07;3.80;;;;;;;11.47;86.63;98354.56;5026276;28;20052;-76
2023/05/15 00:44:00;;;;;;;3.92;3.38;;;;;;;11.48;86.40;98357.09;5026463;28;20297;-76
2023/05/15 00:46:32;;;;;;;3.78;3.38;;;;;;;11.48;86.46;98356.25;5026748;28;20052;-76
2023/05/15 00:48:59;;;;;;;4.15;3.60;;;;;;;11.48;86.51;98348.28;5026687;28;20054;-76
2023/05/15 00:51:26;;;;;;;4.28;3.75;;;;;;;11.48;86.31;98351.78;5026360;28;20111;-76
2023/05/15 00:53:53;;;;;;;4.43;3.92;;;;;;;11.48;86.36;98337.69;5026086;28;20041;-76
2023/05/15 00:56:21;;;;;;;3.90;3.50;;;;;;;11.49;86.57;98334.06;5026595;28;20053;-76
2023/05/15 00:58:49;;;;;;;4.05;3.35;;;;;;;11.49;86.40;98328.75;5025152;28;20038;-76
2023/05/15 01:01:17;;;;;;;3.50;3.10;;;;;;;11.48;86.58;98324.41;5025983;28;20041;-76
2023/05/15 01:03:46;;;;;;;3.85;3.10;;;;;;;11.48;86.41;98319.09;5026475;28;20191;-76
2023/05/15 01:06:13;;;;;;;3.55;3.08;;;;;;;11.48;86.46;98314.66;5025890;28;20041;-76
2023/05/15 01:08:43;;;;;;;3.80;3.22;;;;;;;11.34;86.53;98293.63;5026374;28;20108;-77
2023/05/15 01:11:13;;;;;;;4.38;3.72;;;;;;;11.50;86.35;98317.19;5026357;28;20201;-77
2023/05/15 01:13:40;;;;;;;4.72;3.83;;;;;;;11.49;86.47;98324.31;5024848;28;20306;-76
2023/05/15 01:16:07;;;;;;;3.90;3.40;;;;;;;11.49;86.47;98326.94;5025735;28;20249;-76
2023/05/15 01:18:35;;;;;;;4.00;3.08;;;;;;;11.49;86.42;98326.94;5024850;28;20305;-76
2023/05/15 01:21:49;;;;;;;3.80;3.40;;;;;;;11.48;86.61;98330.56;5025688;28;20060;-77
2023/05/15 01:24:42;;;;;;;4.10;3.58;;;;;;;11.43;86.50;98337.19;4956863;28;20046;-77
2023/05/15 01:27:19;;;;;;;4.10;3.40;;;;;;;11.41;86.92;98345.25;5024764;28;20038;-76
2023/05/15 01:29:56;;;;;;;4.15;3.58;;;;;;;11.43;86.62;98358.41;5025910;28;20198;-76
2023/05/15 01:32:27;;;;;;;3.40;2.80;;;;;;;11.44;86.45;98352.13;5025867;28;20332;-76
2023/05/15 01:35:07;;;;;;;4.38;2.92;;;;;;;11.44;86.33;98354.78;5024731;28;20038;-76
2023/05/15 01:37:36;;;;;;;4.00;3.00;;;;;;;11.29;86.24;98330.25;5024657;28;20038;-76
2023/05/15 01:40:09;;;;;;;5.28;4.05;;;;;;;11.43;86.06;98353.94;5024699;28;20046;-76
2023/05/15 01:42:42;;;;;;;5.40;3.83;;;;;;;11.43;85.95;98356.59;5026045;28;20045;-75
2023/05/15 01:45:11;;;;;;;5.97;4.97;;;;;;;10.97;85.99;98284.91;5024616;28;20053;-76
2023/05/15 01:47:43;;;;;;;6.18;4.93;;;;;;;11.40;86.32;98348.88;5024606;28;20042;-75
2023/05/15 01:50:13;;;;;;;6.47;5.10;;;;;;;11.39;85.86;98349.81;5025925;28;20100;-76
2023/05/15 01:52:42;;;;;;;5.45;4.57;;;;;;;11.40;85.91;98354.16;5025352;28;20046;-76
2023/05/15 01:55:11;;;;;;;6.10;4.88;;;;;;;11.38;86.03;98363.22;5025434;28;20042;-76
2023/05/15 01:57:41;;;;;;;6.22;5.05;;;;;;;11.37;85.62;98357.06;5025286;28;20050;-75
2023/05/15 02:00:10;;;;;;;5.50;4.80;;;;;;;11.39;85.94;98356.94;5024504;28;20037;-76
2023/05/15 02:02:37;;;;;;;6.03;4.88;;;;;;;11.39;85.50;98348.97;5025331;28;20107;-76
2023/05/15 02:05:07;;;;;;;5.88;4.43;;;;;;;11.39;85.35;98346.31;5025304;28;20206;-76
2023/05/15 02:07:34;;;;;;;6.60;4.80;;;;;;;11.38;85.54;98357.91;5024465;28;20034;-76
2023/05/15 02:10:02;;;;;;;6.50;4.78;;;;;;;11.37;85.28;98350.91;5025243;28;20332;-76
2023/05/15 02:12:30;;;;;;;4.78;4.03;;;;;;;11.36;85.40;98357.16;5025192;28;20046;-76
2023/05/15 02:14:59;;;;;;;5.25;4.10;;;;;;;11.34;85.39;98353.78;5024621;28;20046;-76
2023/05/15 02:17:26;;;;;;;5.00;4.07;;;;;;;11.33;85.42;98338.81;5025662;28;20046;-76
2023/05/15 02:19:53;;;;;;;6.25;4.22;;;;;;;11.32;85.37;98326.53;5024299;28;20085;-76
2023/05/15 02:22:20;;;;;;;4.68;4.05;;;;;;;11.17;85.23;98296.69;5026830;28;20053;-76
2023/05/15 02:24:46;;;;;;;5.60;4.55;;;;;;;11.31;85.71;98315.06;5027972;28;20048;-76
2023/05/15 02:27:19;;;;;;;5.20;4.40;;;;;;;11.29;85.37;98319.63;5027955;28;20276;-76
2023/05/15 02:30:01;;;;;;;6.13;4.47;;;;;;;11.26;85.53;98317.22;5028722;28;20052;-76
2023/05/15 02:32:41;;;;;;;4.47;3.90;;;;;;;11.24;85.92;98317.31;5028957;28;20100;-76
2023/05/15 02:35:18;;;;;;;4.80;4.30;;;;;;;11.23;85.81;98318.28;5029200;28;20053;-74
2023/05/15 02:37:49;;;;;;;3.97;3.38;;;;;;;11.23;85.83;98310.34;5027717;28;20049;-74
2023/05/15 02:40:17;;;;;;;5.20;4.70;;;;;;;11.23;85.48;98312.97;5027797;28;20049;-75
2023/05/15 02:42:45;;;;;;;20.50;5.63;;;;;;;11.25;85.38;98315.53;5028733;28;20046;-75
2023/05/15 02:45:12;;;;;;;4.75;4.20;;;;;;;11.22;85.45;98319.25;5028516;28;20045;-75
2023/05/15 02:47:42;;;;;;;5.13;4.38;;;;;;;11.23;85.41;98317.44;5027524;28;20041;-75
2023/05/15 02:50:09;;;;;;;4.97;4.32;;;;;;;11.22;85.43;98326.34;5028342;28;20375;-75
2023/05/15 02:52:36;;;;;;;5.07;4.28;;;;;;;11.22;85.53;98313.09;5027455;28;20041;-76
2023/05/15 02:55:03;;;;;;;5.38;3.90;;;;;;;11.22;85.59;98308.63;5027361;28;20056;-76
2023/05/15 02:57:30;;;;;;;5.85;4.22;;;;;;;11.22;85.46;98302.50;5027346;28;20052;-76
2023/05/15 02:59:57;;;;;;;5.65;4.30;;;;;;;10.85;85.17;98241.59;5028161;28;20037;-76
2023/05/15 03:02:24;;;;;;;5.30;4.03;;;;;;;11.20;85.25;98310.56;5028126;28;20052;-76
2023/05/15 03:04:52;;;;;;;5.13;4.32;;;;;;;11.19;85.47;98305.38;5027354;28;20328;-76
2023/05/15 03:07:19;;;;;;;5.13;3.55;;;;;;;11.19;85.61;98298.25;5027218;28;20037;-76
2023/05/15 03:09:46;;;;;;;4.13;3.47;;;;;;;11.19;85.54;98289.47;5028525;28;20050;-76
2023/05/15 03:12:12;;;;;;;4.75;3.90;;;;;;;11.18;85.41;98288.63;5028215;28;20045;-76
2023/05/15 03:14:39;;;;;;;4.60;3.55;;;;;;;11.18;85.48;98285.13;5027368;28;20171;-76
2023/05/15 03:17:06;;;;;;;4.88;3.67;;;;;;;11.16;85.53;98282.56;5028327;28;20053;-77
2023/05/15 03:19:32;;;;;;;3.85;3.30;;;;;;;11.13;85.51;98287.25;5026864;28;20113;-76
2023/05/15 03:22:00;;;;;;;3.67;3.05;;;;;;;11.10;85.66;98282.19;5026606;28;20104;-76
2023/05/15 03:24:27;;;;;;;4.00;3.00;;;;;;;11.10;85.43;98292.78;5026859;28;20332;-76
2023/05/15 03:26:54;;;;;;;2.97;2.33;;;;;;;11.08;85.26;98295.56;5026781;28;20096;-76
2023/05/15 03:29:21;;;;;;;3.25;2.50;;;;;;;11.07;85.48;98293.88;5026704;28;20237;-76
2023/05/15 03:31:47;;;;;;;4.00;2.20;;;;;;;11.07;85.43;98296.50;5027305;28;20068;-76
2023/05/15 03:34:14;;;;;;;2.90;2.20;;;;;;;11.07;85.12;98299.16;5025700;28;20080;-77
2023/05/15 03:36:41;;;;;;;2.60;1.80;;;;;;;11.06;85.14;98301.94;5026610;28;20048;-76
2023/05/15 03:39:09;;;;;;;2.90;2.08;;;;;;;11.06;85.12;98307.22;5026468;28;20042;-76
2023/05/15 03:41:36;;;;;;;2.90;2.17;;;;;;;11.05;85.15;98303.75;5026487;28;20321;-76
2023/05/15 03:44:03;;;;;;;3.00;2.10;;;;;;;11.06;85.31;98307.22;5026412;28;20042;-77
2023/05/15 03:46:29;;;;;;;2.65;2.17;;;;;;;11.05;85.08;98309.03;5027832;28;20058;-77
2023/05/15 03:48:56;;;;;;;3.05;2.33;;;;;;;10.56;85.19;98224.28;5028119;28;20221;-76
2023/05/15 03:51:23;;;;;;;3.30;2.30;;;;;;;11.07;85.24;98314.22;5027665;28;20048;-76
2023/05/15 03:53:50;;;;;;;3.13;2.70;;;;;;;11.08;85.06;98315.94;5027174;28;20046;-76
2023/05/15 03:56:18;;;;;;;2.97;2.30;;;;;;;11.08;85.44;98314.13;5026769;28;20190;-76
2023/05/15 03:58:45;;;;;;;3.67;2.60;;;;;;;10.47;85.12;98301.78;5027213;28;20193;-77
2023/05/15 04:01:12;;;;;;;3.13;2.55;;;;;;;11.08;85.38;98322.06;5026982;28;20052;-76
2023/05/15 04:03:38;;;;;;;3.80;2.53;;;;;;;11.09;85.35;98307.00;5027512;28;20038;-76
2023/05/15 04:06:06;;;;;;;2.88;2.10;;;;;;;11.08;85.49;98316.78;5027572;28;20041;-76
2023/05/15 04:08:32;;;;;;;2.80;2.20;;;;;;;11.08;85.43;98315.94;5026002;28;20068;-76
2023/05/15 04:10:59;;;;;;;3.22;2.78;;;;;;;11.07;85.63;98317.72;5026960;28;20056;-76
2023/05/15 04:13:28;;;;;;;2.60;2.15;;;;;;;11.06;85.50;98312.53;5027327;28;20042;-76
2023/05/15 04:15:54;;;;;;;2.92;2.30;;;;;;;11.07;85.60;98314.22;5027266;28;20054;-77
2023/05/15 04:18:21;;;;;;;2.90;1.77;;;;;;;11.08;85.59;98310.63;5027139;28;20045;-76
2023/05/15 04:20:48;;;;;;;2.35;1.73;;;;;;;11.09;85.46;98310.50;5025599;28;20053;-76
2023/05/15 04:23:15;;;;;;;2.88;1.70;;;;;;;11.08;85.51;98307.97;5026918;28;20209;-76
2023/05/15 04:25:45;;;;;;;2.60;1.90;;;;;;;11.12;85.47;98312.94;5026557;28;20038;-76
2023/05/15 04:28:12;;;;;;;2.60;1.63;;;;;;;11.12;85.48;98320.88;5025649;28;20092;-76
2023/05/15 04:30:40;;;;;;;2.63;1.70;;;;;;;11.10;85.46;98319.31;5025689;28;20046;-76
2023/05/15 04:33:07;;;;;;;2.75;1.65;;;;;;;11.08;85.24;98311.47;5026583;28;20046;-76
2023/05/15 04:35:34;;;;;;;2.05;1.40;;;;;;;11.06;85.14;98313.38;5025615;28;20042;-76
2023/05/15 04:38:00;;;;;;;1.95;1.30;;;;;;;11.05;84.59;98309.03;5025509;28;20057;-76
2023/05/15 04:40:27;;;;;;;1.83;1.27;;;;;;;11.01;84.42;98312.88;5025514;28;20045;-76
2023/05/15 04:42:54;;;;;;;3.10;1.83;;;;;;;10.99;84.19;98301.53;5025709;28;20038;-76
2023/05/15 04:45:20;;;;;;;4.07;1.80;;;;;;;10.87;84.31;98289.19;5026437;28;20077;-76
2023/05/15 04:47:48;;;;;;;2.40;1.42;;;;;;;10.90;84.06;98310.16;5026140;28;20237;-76
2023/05/15 04:50:15;;;;;;;2.15;1.40;;;;;;;10.88;84.12;98310.28;5025294;28;20088;-76
2023/05/15 04:52:44;;;;;;;1.85;1.35;;;;;;;10.86;83.71;98300.75;5026612;28;20205;-76
2023/05/15 04:55:11;;;;;;;2.15;1.42;;;;;;;10.84;83.91;98307.97;5026214;28;20120;-76
2023/05/15 04:57:37;;;;;;;2.83;1.30;;;;;;;10.83;83.82;98314.22;5025155;28;20033;-76
2023/05/15 05:00:09;;;;;;;2.10;1.50;;;;;;;10.82;83.87;98315.19;5026353;28;20049;-76
2023/05/15 05:02:36;;;;;;;1.80;1.20;;;;;;;10.80;83.80;98317.09;5025716;28;20053;-76
2023/05/15 05:05:06;;;;;;;1.80;1.20;;;;;;;10.76;83.92;98319.09;5025055;28;20049;-76
2023/05/15 05:07:32;;;;;;;1.90;1.20;;;;;;;10.74;83.95;98322.81;5025657;28;20306;-76
2023/05/15 05:09:59;;;;;;;2.97;1.65;;;;;;;10.75;84.10;98325.34;5025445;28;20030;-76
2023/05/15 05:12:26;;;;;;;1.88;1.30;;;;;;;10.78;83.99;98329.59;5026019;28;20049;-76
2023/05/15 05:14:54;;;;;;;2.20;1.38;;;;;;;10.77;83.76;98325.22;5024937;28;20245;-76
2023/05/15 05:17:21;;;;;;;1.85;1.30;;;;;;;10.80;83.67;98317.09;5025745;28;20315;-76
2023/05/15 05:19:47;;;;;;;3.42;1.50;;;;;;;10.83;83.59;98317.72;5024624;28;20034;-76
2023/05/15 05:22:15;;;;;;;2.00;1.30;;;;;;;10.84;83.89;98324.72;5024675;28;20045;-76
2023/05/15 05:24:42;;;;;;;3.83;1.50;;;;;;;10.86;83.76;98332.56;5025380;28;20340;-76
2023/05/15 05:27:09;;;;;;;2.20;1.40;;;;;;;10.86;83.41;98332.56;5024755;28;20065;-76
2023/05/15 05:29:36;;;;;;;2.40;1.50;;;;;;;10.73;83.59;98310.50;5024686;28;20046;-76
2023/05/15 05:32:02;;;;;;;2.33;1.40;;;;;;;10.87;83.34;98331.59;5025451;28;20042;-76
2023/05/15 05:34:29;;;;;;;1.92;1.33;;;;;;;10.39;83.45;98259.94;5024565;28;20061;-76
2023/05/15 05:36:56;;;;;;;2.40;1.55;;;;;;;10.72;83.25;98317.63;5026029;28;20050;-76
2023/05/15 05:39:24;;;;;;;3.15;1.70;;;;;;;10.84;83.07;98337.13;5025628;28;20046;-76
2023/05/15 05:41:51;;;;;;;2.30;1.70;;;;;;;10.82;83.04;98337.22;5025845;28;20091;-75
2023/05/15 05:44:17;;;;;;;2.22;1.55;;;;;;;10.85;83.10;98333.50;5025664;28;20053;-76
2023/05/15 05:46:45;;;;;;;2.13;1.42;;;;;;;10.89;82.96;98341.13;5025971;28;20085;-76
2023/05/15 05:49:11;;;;;;;2.22;1.38;;;;;;;10.91;83.07;98330.41;5025824;28;20278;-76
2023/05/15 05:51:38;;;;;;;2.22;1.50;;;;;;;10.96;83.20;98341.53;5025193;28;20072;-76
2023/05/15 05:54:05;;;;;;;2.00;1.30;;;;;;;11.02;82.97;98335.78;5025514;28;20053;-75
2023/05/15 05:56:33;;;;;;;3.22;1.40;;;;;;;11.04;82.78;98336.50;5026068;28;20041;-76
2023/05/15 05:59:00;;;;;;;2.55;1.40;;;;;;;11.06;83.04;98329.28;5028205;28;20088;-76
2023/05/15 06:01:27;;;;;;;2.67;1.40;;;;;;;11.08;83.02;98335.34;5029176;28;20065;-76
2023/05/15 06:03:54;;;;;;;2.53;1.38;;;;;;;11.10;82.61;98335.22;5029224;28;20320;-76
2023/05/15 06:06:21;;;;;;;1.90;1.30;;;;;;;11.12;82.61;98336.81;5028882;28;20049;-76
2023/05/15 06:08:48;;;;;;;1.67;1.30;;;;;;;11.10;82.51;98336.06;5028156;28;20045;-76
2023/05/15 06:11:14;;;;;;;3.25;1.40;;;;;;;11.09;82.51;98336.19;5029528;28;20080;-76
2023/05/15 06:13:43;;;;;;;2.38;1.38;;;;;;;11.11;82.22;98344.88;5028105;28;20121;-76
2023/05/15 06:16:10;;;;;;;2.05;1.30;;;;;;;11.12;82.64;98347.41;5027927;28;20285;-76
2023/05/15 06:18:36;;;;;;;2.58;1.30;;;;;;;11.14;82.43;98345.50;5029397;28;20034;-76
2023/05/15 06:21:03;;;;;;;2.75;1.45;;;;;;;11.14;82.46;98342.00;5028803;28;20384;-76
2023/05/15 06:23:30;;;;;;;3.38;1.77;;;;;;;11.12;82.71;98344.75;5028721;28;20045;-76
2023/05/15 06:25:57;;;;;;;2.35;1.50;;;;;;;11.13;82.72;98342.94;5027887;28;20096;-76
2023/05/15 06:28:23;;;;;;;2.95;1.40;;;;;;;11.13;82.81;98342.94;5029283;28;20045;-76
2023/05/15 06:30:52;;;;;;;2.33;1.30;;;;;;;11.13;82.77;98343.78;5028897;28;20348;-76
2023/05/15 06:33:20;;;;;;;2.00;1.23;;;;;;;11.15;82.52;98341.88;5027965;28;20104;-76
2023/05/15 06:35:47;;;;;;;2.80;1.55;;;;;;;11.18;82.58;98339.00;5027682;28;20046;-76
2023/05/15 06:38:14;;;;;;;2.05;1.40;;;;;;;11.20;82.74;98344.19;5027610;28;20302;-76
2023/05/15 06:40:41;;;;;;;1.85;1.40;;;;;;;11.21;82.59;98343.22;5027611;28;20206;-76
2023/05/15 06:43:07;;;;;;;2.25;1.40;;;;;;;11.21;82.72;98348.53;5027626;28;20050;-76
2023/05/15 06:45:34;;;;;;;3.28;1.50;;;;;;;11.22;82.79;98343.13;5029221;28;20046;-76
2023/05/15 06:48:02;;;;;;;1.98;1.30;;;;;;;11.27;82.78;98356.03;5027417;28;20041;-76
2023/05/15 06:50:29;;;;;;;1.92;1.30;;;;;;;11.26;81.81;98350.84;5028213;28;20101;-76
2023/05/15 06:52:56;;;;;;;2.00;1.30;;;;;;;11.29;81.89;98350.63;5028518;28;20245;-76
2023/05/15 06:55:22;;;;;;;1.92;1.25;;;;;;;11.32;81.64;98353.03;5027314;28;20046;-76
2023/05/15 06:57:49;;;;;;;2.42;1.40;;;;;;;11.30;81.55;98357.63;5028402;28;20053;-76
2023/05/15 07:00:17;;;;;;;2.20;1.38;;;;;;;11.33;80.87;98355.59;5028155;28;20037;-76
2023/05/15 07:02:43;;;;;;;2.70;1.75;;;;;;;11.27;81.34;98336.63;5027920;28;20033;-76
2023/05/15 07:05:11;;;;;;;2.33;1.60;;;;;;;11.47;81.23;98355.41;5028576;28;20046;-76
2023/05/15 07:07:38;;;;;;;2.78;1.45;;;;;;;11.54;80.98;98363.75;5028023;28;20042;-76
2023/05/15 07:10:06;;;;;;;3.58;1.48;;;;;;;11.57;80.67;98372.34;5028080;28;20034;-76
2023/05/15 07:12:33;;;;;;;2.83;1.48;;;;;;;11.62;80.75;98372.00;5027605;28;20065;-76
2023/05/15 07:15:00;;;;;;;2.65;1.40;;;;;;;11.81;80.97;98367.00;5027684;28;20323;-76
2023/05/15 07:17:26;;;;;;;2.10;1.40;;;;;;;11.93;80.04;98364.38;5026936;28;20041;-76
2023/05/15 07:19:53;;;;;;;3.28;1.40;;;;;;;12.02;79.94;98356.56;5027914;28;20312;-76
2023/05/15 07:22:21;;;;;;;2.22;1.42;;;;;;;12.12;79.50;98367.34;5026697;28;20080;-76
2023/05/15 07:24:48;;;;;;;2.03;1.30;;;;;;;12.28;79.14;98369.69;5027489;28;20042;-76
2023/05/15 07:27:15;;;;;;;2.15;1.30;;;;;;;12.50;78.47;98372.34;5026941;28;20041;-76
2023/05/15 07:29:41;;;;;;;1.73;1.10;;;;;;;12.75;77.97;98381.91;5026675;28;20034;-76
2023/05/15 07:32:08;;;;;;;2.33;1.30;;;;;;;12.82;77.42;98351.19;5028049;28;20042;-76
2023/05/15 07:34:35;;;;;;;1.85;1.20;;;;;;;12.97;76.08;98370.41;5027977;28;20054;-76
2023/05/15 07:37:01;;;;;;;2.10;1.27;;;;;;;13.11;76.64;98378.94;5027812;28;20298;-77
2023/05/15 07:39:30;;;;;;;2.28;1.23;;;;;;;13.23;75.66;98424.16;5027128;28;20045;-76
2023/05/15 07:41:56;;;;;;;1.92;1.35;;;;;;;13.31;75.25;98374.66;5027509;28;20050;-76
2023/05/15 07:44:23;;;;;;;4.35;1.75;;;;;;;13.47;74.52;98374.28;5026250;28;20092;-77
2023/05/15 07:46:50;;;;;;;3.28;1.85;;;;;;;12.64;72.54;98230.38;5027404;28;20052;-76
2023/05/15 07:49:17;;;;;;;2.80;1.70;;;;;;;13.50;73.82;98376.69;5027628;28;20065;-76
2023/05/15 07:51:43;;;;;;;2.83;1.50;;;;;;;13.52;73.04;98381.91;5027094;28;20302;-77
2023/05/15 07:54:10;;;;;;;2.63;1.70;;;;;;;13.43;72.76;98386.16;5026197;28;20046;-76
2023/05/15 07:56:38;;;;;;;2.90;1.55;;;;;;;13.33;72.99;98383.38;5027546;28;20054;-76
2023/05/15 07:59:05;;;;;;;1.80;1.20;;;;;;;13.31;73.37;98395.13;5026751;28;20174;-76
2023/05/15 08:01:32;;;;;;;2.30;1.50;;;;;;;13.28;73.62;98393.53;5025997;28;20319;-77
2023/05/15 08:03:59;;;;;;;1.90;1.20;;;;;;;13.31;73.24;98385.31;5026048;28;20042;-76
2023/05/15 08:06:25;;;;;;;2.40;1.70;;;;;;;13.45;73.04;98397.53;5026755;28;20109;-76
2023/05/15 08:08:52;;;;;;;3.13;1.67;;;;;;;13.54;72.63;98385.28;5027030;28;20356;-76
2023/05/15 08:11:19;;;;;;;2.40;1.50;;;;;;;13.58;72.26;98392.03;5027021;28;20221;-77
2023/05/15 08:13:47;;;;;;;2.08;1.23;;;;;;;13.64;71.91;98400.38;5027211;28;20193;-76
2023/05/15 08:16:14;;;;;;;2.20;1.45;;;;;;;13.59;71.96;98391.06;5026535;28;20042;-77
2023/05/15 08:18:40;;;;;;;2.83;1.77;;;;;;;13.50;71.56;98392.66;5026506;28;20096;-76
2023/05/15 08:21:07;;;;;;;2.25;1.35;;;;;;;11.57;72.20;98061.88;5026180;28;20364;-77
2023/05/15 08:23:34;;;;;;;2.10;1.35;;;;;;;13.73;71.56;98396.94;5024596;28;20092;-77
2023/05/15 08:26:01;;;;;;;3.35;2.03;;;;;;;13.79;71.12;98399.09;5026019;28;20064;-76
2023/05/15 08:28:27;;;;;;;2.15;1.33;;;;;;;13.87;70.60;98400.25;5025695;28;20052;-77
2023/05/15 08:30:56;;;;;;;2.08;1.40;;;;;;;13.92;70.99;98401.56;5025352;28;20041;-76
2023/05/15 08:33:22;;;;;;;2.40;1.45;;;;;;;13.98;70.54;98408.19;5024351;28;20046;-77
2023/05/15 08:35:50;;;;;;;3.85;1.63;;;;;;;14.04;70.23;98405.03;5025332;28;20042;-76
2023/05/15 08:38:17;;;;;;;2.50;1.33;;;;;;;14.16;69.82;98398.66;5025697;28;20088;-76
2023/05/15 08:40:50;;;;;;;2.10;1.30;;;;;;;14.15;68.30;98402.28;5025639;28;20057;-76
2023/05/15 08:43:18;;;;;;;2.20;1.40;;;;;;;14.17;69.41;98405.69;5025539;28;20042;-76
2023/05/15 08:45:44;;;;;;;2.80;1.50;;;;;;;14.04;69.48;98389.88;5025952;28;20099;-76
2023/05/15 08:48:16;;;;;;;1.77;1.23;;;;;;;14.15;68.63;98410.28;5025337;28;20042;-76
2023/05/15 08:50:43;;;;;;;3.67;1.40;;;;;;;14.14;69.26;98408.59;5024475;28;20049;-77
2023/05/15 08:53:11;;;;;;;1.90;1.27;;;;;;;13.88;69.05;98386.81;5025247;28;20041;-76
2023/05/15 08:55:38;;;;;;;2.13;1.50;;;;;;;14.03;69.39;98414.84;5025555;28;20046;-76
2023/05/15 08:58:05;;;;;;;2.13;1.42;;;;;;;14.01;69.22;98408.78;5025240;28;20259;-76
2023/05/15 09:00:33;;;;;;;2.03;1.38;;;;;;;13.96;69.12;98423.47;5024480;28;20213;-76
2023/05/15 09:03:01;;;;;;;2.20;1.50;;;;;;;13.83;68.87;98417.47;5008013;28;20041;-76
2023/05/15 09:05:30;;;;;;;2.40;1.42;;;;;;;13.73;69.29;98434.22;5024915;28;20046;-76
2023/05/15 09:08:00;;;;;;;3.65;1.50;;;;;;;13.69;69.63;98442.59;5024423;28;20045;-76
2023/05/15 09:10:28;;;;;;;2.03;1.52;;;;;;;13.63;69.65;98440.44;5024053;28;20061;-76
2023/05/15 09:12:55;;;;;;;2.00;1.33;;;;;;;13.64;69.80;98440.31;5023968;28;20073;-76
2023/05/15 09:15:24;;;;;;;2.28;1.50;;;;;;;13.65;69.57;98438.47;5024024;28;20044;-76
2023/05/15 09:17:52;;;;;;;2.40;1.50;;;;;;;13.73;69.92;98439.53;5025237;28;20230;-76
2023/05/15 09:20:27;;;;;;;1.74;1.26;;;;;;;13.87;67.68;98457.03;4970316;28;1513365;-76
2023/05/15 09:22:55;;;;;;;2.85;1.75;;;;;;;13.47;68.41;98359.16;5025495;28;20050;-76
2023/05/15 09:25:37;;;;;;;2.95;1.60;;;;;;;13.95;66.86;98430.63;5024780;28;20290;-76
2023/05/15 09:28:04;;;;;;;2.05;1.40;;;;;;;13.99;68.46;98432.06;5024772;28;20214;-76
2023/05/15 09:30:31;;;;;;;2.17;1.45;;;;;;;13.98;68.08;98432.19;5023656;28;20117;-76
2023/05/15 09:33:00;;;;;;;3.90;1.83;;;;;;;13.89;67.74;98446.25;5025760;28;20174;-76
2023/05/15 09:35:34;;;;;;;3.17;1.50;;;;;;;13.79;65.83;98444.34;5024581;28;20046;-76
2023/05/15 09:38:04;;;;;;;2.20;1.35;;;;;;;13.83;65.94;98447.63;5025453;28;20088;-76
2023/05/15 09:40:31;;;;;;;3.58;1.33;;;;;;;13.59;67.75;98389.25;5025592;28;20041;-76
2023/05/15 09:42:59;;;;;;;2.60;1.60;;;;;;;14.00;67.07;98446.22;5025443;28;20059;-76
2023/05/15 09:45:28;;;;;;;1.90;1.30;;;;;;;13.99;66.53;98458.69;5026027;28;20072;-76
2023/05/15 09:47:55;;;;;;;2.03;1.40;;;;;;;14.02;66.52;98450.44;5024487;28;20045;-76
2023/05/15 09:50:23;;;;;;;3.22;1.40;;;;;;;14.16;65.66;98429.78;5025445;28;20045;-76
2023/05/15 09:52:50;;;;;;;2.10;1.40;;;;;;;14.31;65.67;98432.00;5024622;28;20048;-76
2023/05/15 09:55:20;;;;;;;2.33;1.63;;;;;;;14.47;64.72;98430.69;5025846;28;20321;-76
2023/05/15 09:58:05;;;;;;;2.20;1.23;;;;;;;14.62;61.44;98432.94;5025904;28;20045;-76
2023/05/15 10:00:32;;;;;;;1.95;1.30;;;;;;;14.76;64.25;98437.09;5025459;28;20302;-76
2023/05/15 10:03:00;;;;;;;1.98;1.40;;;;;;;14.88;64.04;98452.03;5025159;28;20042;-76
2023/05/15 10:05:28;;;;;;;1.90;1.25;;;;;;;14.99;63.80;98445.75;5024709;28;20293;-76
2023/05/15 10:07:55;;;;;;;1.75;1.13;;;;;;;15.10;63.43;98437.66;5024551;28;20052;-76
2023/05/15 10:10:25;;;;;;;2.63;1.50;;;;;;;15.10;63.50;98410.97;5025638;28;20037;-77
2023/05/15 10:12:52;;;;;;;2.38;1.40;;;;;;;15.36;63.05;98446.03;5024201;28;20041;-75
2023/05/15 10:15:20;;;;;;;1.60;1.23;;;;;;;15.32;61.81;98436.59;5025075;28;20306;-76
2023/05/15 10:17:49;;;;;;;3.53;1.60;;;;;;;15.20;61.78;98451.03;5024939;28;20092;-76
2023/05/15 10:20:16;;;;;;;1.80;1.40;;;;;;;15.04;62.23;98439.03;5024701;28;20199;-76
2023/05/15 10:22:46;;;;;;;1.98;1.40;;;;;;;14.96;61.88;98441.53;5025397;28;20049;-76
2023/05/15 10:25:18;;;;;;;2.92;1.55;;;;;;;14.96;61.29;98436.19;5024169;28;20037;-76
2023/05/15 10:27:47;;;;;;;2.20;1.30;;;;;;;13.06;62.17;98101.00;5025164;28;20060;-76
2023/05/15 10:30:15;;;;;;;3.25;1.55;;;;;;;15.22;62.41;98443.72;5024034;28;20042;-76
2023/05/15 10:32:43;;;;;;;1.80;1.20;;;;;;;15.36;61.85;98438.84;5024955;28;20056;-76
2023/05/15 10:35:12;;;;;;;3.45;1.63;;;;;;;15.46;61.49;98438.88;5025188;28;20096;-76
2023/05/15 10:37:40;;;;;;;1.75;1.20;;;;;;;15.46;60.93;98427.34;5024547;28;20034;-76
2023/05/15 10:40:09;;;;;;;2.60;1.33;;;;;;;15.42;61.81;98424.13;5024836;28;20109;-76
2023/05/15 10:42:37;;;;;;;1.65;1.30;;;;;;;15.39;61.38;98424.38;5025402;28;20332;-76
2023/05/15 10:45:08;;;;;;;2.00;1.40;;;;;;;15.29;59.82;98424.38;5027208;28;20088;-76
2023/05/15 10:47:37;;;;;;;1.98;1.20;;;;;;;15.25;62.02;98430.97;5028669;28;20042;-76
2023/05/15 10:50:05;;;;;;;1.98;1.38;;;;;;;15.18;61.57;98429.81;5027291;28;20282;-76
2023/05/15 10:52:32;;;;;;;2.70;1.33;;;;;;;15.09;61.56;98433.28;5028205;28;20045;-76
2023/05/15 10:54:59;;;;;;;2.75;1.52;;;;;;;15.03;61.91;98442.69;5028578;28;20069;-76
2023/05/15 10:57:28;;;;;;;3.50;1.45;;;;;;;15.00;61.55;98429.59;5027065;28;20042;-76
2023/05/15 10:59:55;;;;;;;2.10;1.50;;;;;;;15.01;61.77;98427.78;5027979;28;20042;-76
2023/05/15 11:02:24;;;;;;;3.25;1.27;;;;;;;15.13;61.86;98420.53;5028574;28;20061;-76
2023/05/15 11:04:56;;;;;;;2.40;1.25;;;;;;;15.22;59.82;98419.72;5028116;28;20205;-76
2023/05/15 11:07:24;;;;;;;2.15;1.20;;;;;;;15.31;61.26;98421.56;5028528;28;20092;-76
2023/05/15 11:09:51;;;;;;;2.00;1.33;;;;;;;15.35;60.16;98428.31;5027017;28;20058;-76
2023/05/15 11:12:19;;;;;;;2.20;1.20;;;;;;;15.32;59.61;98417.91;5027015;28;20060;-75
2023/05/15 11:15:18;;;;;;;2.60;1.50;;;;;;;14.72;56.64;98329.81;5027787;28;20049;-75
2023/05/15 11:18:02;;;;;;;2.22;1.50;;;;;;;15.00;55.85;98362.91;5028015;28;20245;-75
2023/05/15 11:20:39;;;;;;;1.85;1.20;;;;;;;15.28;56.90;98389.81;5027379;28;20055;-76
2023/05/15 11:23:05;;;;;;;2.60;1.60;;;;;;;15.34;59.47;98358.06;5028024;28;20046;-73
2023/05/15 11:25:36;;;;;;;2.28;1.52;;;;;;;15.71;59.08;98390.31;5027968;28;20038;-73
2023/05/15 11:28:04;;;;;;;2.17;1.40;;;;;;;13.83;59.38;98055.28;5027368;28;20034;-73
2023/05/15 11:30:38;;;;;;;2.38;1.40;;;;;;;15.64;56.95;98345.56;5027412;28;20120;-74
2023/05/15 11:33:19;;;;;;;2.72;1.80;;;;;;;15.84;58.39;98373.16;5027571;28;20137;-74
2023/05/15 11:35:47;;;;;;;3.75;1.50;;;;;;;15.92;58.40;98386.63;5026328;28;20050;-74
2023/05/15 11:38:16;;;;;;;3.00;1.65;;;;;;;15.81;58.52;98362.75;5026333;28;20042;-74
2023/05/15 11:40:47;;;;;;;2.60;1.70;;;;;;;16.06;57.12;98378.19;5026354;28;20034;-74